sensor_id;sensor_type;location;lat;lon;timestamp;P1;durP1;ratioP1;P2;durP2;ratioP2
4794;SDS011;2411;47.060;15.064;2024-01-15T00:01:16;16.20;;;11.03;;
4794;SDS011;2411;47.060;15.064;2024-01-15T00:03:44;17.80;;;12.03;;
4794;SDS011;2411;47.060;15.064;2024-01-15T00:06:13;17.90;;;11.67;;
4794;SDS011;2411;47.060;15.064;2024-01-15T00:08:41;17.33;;;10.77;;
4794;SDS011;2411;47.060;15.064;2024-01-15T00:11:08;17.57;;;9.87;;
4794;SDS011;2411;47.060;15.064;2024-01-15T00:13:35;7.33;;;5.33;;
4794;SDS011;2411;47.060;15.064;2024-01-15T00:16:04;10.30;;;7.20;;
4794;SDS011;2411;47.060;15.064;2024-01-15T00:18:32;10.50;;;7.30;;
4794;SDS011;2411;47.060;15.064;2024-01-15T00:20:59;8.40;;;6.00;;
4794;SDS011;2411;47.060;15.064;2024-01-15T00:23:26;8.03;;;5.43;;
4794;SDS011;2411;47.060;15.064;2024-01-15T00:25:54;5.73;;;5.10;;
4794;SDS011;2411;47.060;15.064;2024-01-15T00:28:21;8.93;;;5.80;;
4794;SDS011;2411;47.060;15.064;2024-01-15T00:30:48;10.47;;;5.40;;
4794;SDS011;2411;47.060;15.064;2024-01-15T00:33:16;11.07;;;6.70;;
4794;SDS011;2411;47.060;15.064;2024-01-15T00:35:43;15.20;;;5.80;;
4794;SDS011;2411;47.060;15.064;2024-01-15T00:38:11;8.50;;;4.70;;
4794;SDS011;2411;47.060;15.064;2024-01-15T00:40:38;9.47;;;5.17;;
4794;SDS011;2411;47.060;15.064;2024-01-15T00:43:06;4.20;;;3.80;;
4794;SDS011;2411;47.060;15.064;2024-01-15T00:45:34;4.07;;;3.70;;
4794;SDS011;2411;47.060;15.064;2024-01-15T00:48:01;6.33;;;5.33;;
4794;SDS011;2411;47.060;15.064;2024-01-15T00:50:29;7.97;;;5.57;;
4794;SDS011;2411;47.060;15.064;2024-01-15T00:52:57;9.43;;;6.03;;
4794;SDS011;2411;47.060;15.064;2024-01-15T00:55:25;18.40;;;10.80;;
4794;SDS011;2411;47.060;15.064;2024-01-15T00:57:52;16.43;;;10.43;;
4794;SDS011;2411;47.060;15.064;2024-01-15T01:00:19;16.73;;;10.17;;
4794;SDS011;2411;47.060;15.064;2024-01-15T01:02:46;15.10;;;9.47;;
4794;SDS011;2411;47.060;15.064;2024-01-15T01:05:14;15.23;;;8.70;;
4794;SDS011;2411;47.060;15.064;2024-01-15T01:07:41;9.87;;;7.70;;
4794;SDS011;2411;47.060;15.064;2024-01-15T01:10:08;8.00;;;5.67;;
4794;SDS011;2411;47.060;15.064;2024-01-15T01:12:35;7.73;;;5.90;;
4794;SDS011;2411;47.060;15.064;2024-01-15T01:15:03;8.17;;;5.83;;
4794;SDS011;2411;47.060;15.064;2024-01-15T01:17:31;7.60;;;6.10;;
4794;SDS011;2411;47.060;15.064;2024-01-15T01:19:59;10.20;;;6.70;;
4794;SDS011;2411;47.060;15.064;2024-01-15T01:22:27;9.03;;;6.23;;
4794;SDS011;2411;47.060;15.064;2024-01-15T01:24:54;12.07;;;7.23;;
4794;SDS011;2411;47.060;15.064;2024-01-15T01:27:22;12.50;;;6.40;;
4794;SDS011;2411;47.060;15.064;2024-01-15T01:29:49;10.80;;;6.63;;
4794;SDS011;2411;47.060;15.064;2024-01-15T01:32:16;6.83;;;5.43;;
4794;SDS011;2411;47.060;15.064;2024-01-15T01:34:44;9.27;;;6.27;;
4794;SDS011;2411;47.060;15.064;2024-01-15T01:37:11;7.10;;;5.63;;
4794;SDS011;2411;47.060;15.064;2024-01-15T01:39:41;6.77;;;4.87;;
4794;SDS011;2411;47.060;15.064;2024-01-15T01:42:10;4.03;;;3.73;;
4794;SDS011;2411;47.060;15.064;2024-01-15T01:44:38;3.30;;;3.00;;
4794;SDS011;2411;47.060;15.064;2024-01-15T01:47:05;2.80;;;2.60;;
4794;SDS011;2411;47.060;15.064;2024-01-15T01:49:32;4.60;;;3.57;;
4794;SDS011;2411;47.060;15.064;2024-01-15T01:52:03;8.70;;;4.80;;
4794;SDS011;2411;47.060;15.064;2024-01-15T01:54:33;8.07;;;5.43;;
4794;SDS011;2411;47.060;15.064;2024-01-15T01:57:02;4.20;;;3.70;;
4794;SDS011;2411;47.060;15.064;2024-01-15T01:59:30;5.17;;;3.83;;
4794;SDS011;2411;47.060;15.064;2024-01-15T02:02:00;4.63;;;3.70;;
4794;SDS011;2411;47.060;15.064;2024-01-15T02:04:31;6.37;;;4.60;;
4794;SDS011;2411;47.060;15.064;2024-01-15T02:06:59;2.93;;;2.73;;
4794;SDS011;2411;47.060;15.064;2024-01-15T02:09:27;4.10;;;3.80;;
4794;SDS011;2411;47.060;15.064;2024-01-15T02:11:55;5.97;;;4.30;;
4794;SDS011;2411;47.060;15.064;2024-01-15T02:14:22;8.53;;;6.53;;
4794;SDS011;2411;47.060;15.064;2024-01-15T02:16:50;5.20;;;4.70;;
4794;SDS011;2411;47.060;15.064;2024-01-15T02:19:17;10.23;;;6.57;;
4794;SDS011;2411;47.060;15.064;2024-01-15T02:21:45;11.13;;;6.70;;
4794;SDS011;2411;47.060;15.064;2024-01-15T02:24:13;3.03;;;2.83;;
4794;SDS011;2411;47.060;15.064;2024-01-15T02:26:40;4.30;;;3.90;;
4794;SDS011;2411;47.060;15.064;2024-01-15T02:29:07;7.23;;;5.60;;
4794;SDS011;2411;47.060;15.064;2024-01-15T02:31:36;9.67;;;5.47;;
4794;SDS011;2411;47.060;15.064;2024-01-15T02:34:04;12.20;;;6.60;;
4794;SDS011;2411;47.060;15.064;2024-01-15T02:36:31;6.63;;;5.20;;
4794;SDS011;2411;47.060;15.064;2024-01-15T02:38:59;7.70;;;5.70;;
4794;SDS011;2411;47.060;15.064;2024-01-15T02:41:26;9.50;;;5.73;;
4794;SDS011;2411;47.060;15.064;2024-01-15T02:43:53;14.23;;;6.40;;
4794;SDS011;2411;47.060;15.064;2024-01-15T02:46:20;11.60;;;7.00;;
4794;SDS011;2411;47.060;15.064;2024-01-15T02:48:48;8.43;;;6.43;;
4794;SDS011;2411;47.060;15.064;2024-01-15T02:51:15;14.50;;;8.30;;
4794;SDS011;2411;47.060;15.064;2024-01-15T02:53:42;10.50;;;7.33;;
4794;SDS011;2411;47.060;15.064;2024-01-15T02:56:09;10.03;;;7.20;;
4794;SDS011;2411;47.060;15.064;2024-01-15T02:58:37;7.77;;;6.30;;
4794;SDS011;2411;47.060;15.064;2024-01-15T03:01:04;9.30;;;6.47;;
4794;SDS011;2411;47.060;15.064;2024-01-15T03:03:32;10.47;;;6.67;;
4794;SDS011;2411;47.060;15.064;2024-01-15T03:06:01;5.13;;;4.27;;
4794;SDS011;2411;47.060;15.064;2024-01-15T03:08:29;5.30;;;4.73;;
4794;SDS011;2411;47.060;15.064;2024-01-15T03:10:56;3.63;;;3.20;;
4794;SDS011;2411;47.060;15.064;2024-01-15T03:13:23;5.63;;;4.00;;
4794;SDS011;2411;47.060;15.064;2024-01-15T03:15:51;4.27;;;3.47;;
4794;SDS011;2411;47.060;15.064;2024-01-15T03:18:18;3.57;;;3.27;;
4794;SDS011;2411;47.060;15.064;2024-01-15T03:20:45;4.63;;;3.00;;
4794;SDS011;2411;47.060;15.064;2024-01-15T03:23:12;5.90;;;4.57;;
4794;SDS011;2411;47.060;15.064;2024-01-15T03:25:41;4.73;;;3.80;;
4794;SDS011;2411;47.060;15.064;2024-01-15T03:28:08;5.70;;;4.10;;
4794;SDS011;2411;47.060;15.064;2024-01-15T03:30:36;3.20;;;3.00;;
4794;SDS011;2411;47.060;15.064;2024-01-15T03:33:04;5.23;;;3.50;;
4794;SDS011;2411;47.060;15.064;2024-01-15T03:35:31;6.07;;;3.57;;
4794;SDS011;2411;47.060;15.064;2024-01-15T03:37:58;3.53;;;2.83;;
4794;SDS011;2411;47.060;15.064;2024-01-15T03:40:25;3.53;;;3.07;;
4794;SDS011;2411;47.060;15.064;2024-01-15T03:42:53;4.50;;;3.67;;
4794;SDS011;2411;47.060;15.064;2024-01-15T03:45:21;6.80;;;4.67;;
4794;SDS011;2411;47.060;15.064;2024-01-15T03:47:48;3.63;;;3.10;;
4794;SDS011;2411;47.060;15.064;2024-01-15T03:50:15;2.67;;;2.47;;
4794;SDS011;2411;47.060;15.064;2024-01-15T03:52:42;3.50;;;2.43;;
4794;SDS011;2411;47.060;15.064;2024-01-15T03:55:10;3.20;;;2.63;;
4794;SDS011;2411;47.060;15.064;2024-01-15T03:57:37;2.70;;;2.10;;
4794;SDS011;2411;47.060;15.064;2024-01-15T04:00:04;2.63;;;2.23;;
4794;SDS011;2411;47.060;15.064;2024-01-15T04:02:34;2.80;;;2.60;;
4794;SDS011;2411;47.060;15.064;2024-01-15T04:05:01;2.50;;;2.40;;
4794;SDS011;2411;47.060;15.064;2024-01-15T04:07:29;2.77;;;2.27;;
4794;SDS011;2411;47.060;15.064;2024-01-15T04:09:56;3.03;;;2.50;;
4794;SDS011;2411;47.060;15.064;2024-01-15T04:12:23;3.30;;;2.33;;
4794;SDS011;2411;47.060;15.064;2024-01-15T04:14:50;3.93;;;3.13;;
4794;SDS011;2411;47.060;15.064;2024-01-15T04:17:18;3.10;;;2.90;;
4794;SDS011;2411;47.060;15.064;2024-01-15T04:19:45;3.17;;;2.80;;
4794;SDS011;2411;47.060;15.064;2024-01-15T04:22:14;2.37;;;2.17;;
4794;SDS011;2411;47.060;15.064;2024-01-15T04:24:42;4.00;;;3.70;;
4794;SDS011;2411;47.060;15.064;2024-01-15T04:27:09;6.50;;;4.50;;
4794;SDS011;2411;47.060;15.064;2024-01-15T04:29:39;3.77;;;2.60;;
4794;SDS011;2411;47.060;15.064;2024-01-15T04:32:07;2.57;;;2.37;;
4794;SDS011;2411;47.060;15.064;2024-01-15T04:34:34;2.17;;;2.07;;
4794;SDS011;2411;47.060;15.064;2024-01-15T04:37:02;2.43;;;2.23;;
4794;SDS011;2411;47.060;15.064;2024-01-15T04:39:29;3.47;;;3.17;;
4794;SDS011;2411;47.060;15.064;2024-01-15T04:41:56;2.60;;;2.40;;
4794;SDS011;2411;47.060;15.064;2024-01-15T04:44:24;2.83;;;2.63;;
4794;SDS011;2411;47.060;15.064;2024-01-15T04:46:51;2.30;;;2.20;;
4794;SDS011;2411;47.060;15.064;2024-01-15T04:49:18;4.03;;;3.17;;
4794;SDS011;2411;47.060;15.064;2024-01-15T04:51:45;2.90;;;2.70;;
4794;SDS011;2411;47.060;15.064;2024-01-15T04:54:13;4.00;;;3.10;;
4794;SDS011;2411;47.060;15.064;2024-01-15T04:56:44;4.67;;;3.53;;
4794;SDS011;2411;47.060;15.064;2024-01-15T04:59:11;5.20;;;4.70;;
4794;SDS011;2411;47.060;15.064;2024-01-15T05:01:41;7.57;;;5.00;;
4794;SDS011;2411;47.060;15.064;2024-01-15T05:04:08;5.83;;;4.73;;
4794;SDS011;2411;47.060;15.064;2024-01-15T05:06:35;8.60;;;5.90;;
4794;SDS011;2411;47.060;15.064;2024-01-15T05:09:02;8.30;;;5.80;;
4794;SDS011;2411;47.060;15.064;2024-01-15T05:11:31;12.50;;;6.60;;
4794;SDS011;2411;47.060;15.064;2024-01-15T05:13:58;8.47;;;5.60;;
4794;SDS011;2411;47.060;15.064;2024-01-15T05:16:25;8.40;;;5.87;;
4794;SDS011;2411;47.060;15.064;2024-01-15T05:18:52;6.37;;;5.43;;
4794;SDS011;2411;47.060;15.064;2024-01-15T05:21:20;11.63;;;6.70;;
4794;SDS011;2411;47.060;15.064;2024-01-15T05:23:47;5.40;;;4.40;;
4794;SDS011;2411;47.060;15.064;2024-01-15T05:26:14;5.67;;;4.07;;
4794;SDS011;2411;47.060;15.064;2024-01-15T05:28:42;6.90;;;4.63;;
4794;SDS011;2411;47.060;15.064;2024-01-15T05:31:09;4.87;;;4.27;;
4794;SDS011;2411;47.060;15.064;2024-01-15T05:33:37;5.43;;;3.60;;
4794;SDS011;2411;47.060;15.064;2024-01-15T05:36:05;3.27;;;2.97;;
4794;SDS011;2411;47.060;15.064;2024-01-15T05:38:33;6.50;;;3.80;;
4794;SDS011;2411;47.060;15.064;2024-01-15T05:41:00;5.67;;;4.60;;
4794;SDS011;2411;47.060;15.064;2024-01-15T05:43:27;5.70;;;4.07;;
4794;SDS011;2411;47.060;15.064;2024-01-15T05:45:54;4.00;;;3.43;;
4794;SDS011;2411;47.060;15.064;2024-01-15T05:48:22;4.47;;;3.60;;
4794;SDS011;2411;47.060;15.064;2024-01-15T05:50:49;4.27;;;3.40;;
4794;SDS011;2411;47.060;15.064;2024-01-15T05:53:17;3.60;;;3.30;;
4794;SDS011;2411;47.060;15.064;2024-01-15T05:55:44;4.87;;;3.80;;
4794;SDS011;2411;47.060;15.064;2024-01-15T05:58:11;4.10;;;3.70;;
4794;SDS011;2411;47.060;15.064;2024-01-15T06:00:38;4.07;;;3.60;;
4794;SDS011;2411;47.060;15.064;2024-01-15T06:03:06;3.43;;;3.00;;
4794;SDS011;2411;47.060;15.064;2024-01-15T06:05:33;3.87;;;3.17;;
4794;SDS011;2411;47.060;15.064;2024-01-15T06:08:00;3.43;;;3.13;;
4794;SDS011;2411;47.060;15.064;2024-01-15T06:10:28;3.70;;;2.70;;
4794;SDS011;2411;47.060;15.064;2024-01-15T06:12:55;2.93;;;2.73;;
4794;SDS011;2411;47.060;15.064;2024-01-15T06:15:22;2.67;;;2.47;;
4794;SDS011;2411;47.060;15.064;2024-01-15T06:17:50;3.77;;;3.27;;
4794;SDS011;2411;47.060;15.064;2024-01-15T06:20:17;2.60;;;2.47;;
4794;SDS011;2411;47.060;15.064;2024-01-15T06:22:44;2.73;;;2.57;;
4794;SDS011;2411;47.060;15.064;2024-01-15T06:25:11;3.27;;;2.97;;
4794;SDS011;2411;47.060;15.064;2024-01-15T06:27:39;3.77;;;3.47;;
4794;SDS011;2411;47.060;15.064;2024-01-15T06:30:06;5.47;;;3.40;;
4794;SDS011;2411;47.060;15.064;2024-01-15T06:32:34;6.17;;;3.47;;
4794;SDS011;2411;47.060;15.064;2024-01-15T06:35:01;4.37;;;3.93;;
4794;SDS011;2411;47.060;15.064;2024-01-15T06:37:28;5.13;;;4.23;;
4794;SDS011;2411;47.060;15.064;2024-01-15T06:39:55;3.73;;;3.40;;
4794;SDS011;2411;47.060;15.064;2024-01-15T06:42:24;4.80;;;4.40;;
4794;SDS011;2411;47.060;15.064;2024-01-15T06:44:52;6.30;;;5.00;;
4794;SDS011;2411;47.060;15.064;2024-01-15T06:47:19;6.07;;;5.47;;
4794;SDS011;2411;47.060;15.064;2024-01-15T06:49:46;6.00;;;5.47;;
4794;SDS011;2411;47.060;15.064;2024-01-15T06:52:13;7.60;;;5.50;;
4794;SDS011;2411;47.060;15.064;2024-01-15T06:54:40;6.13;;;4.97;;
4794;SDS011;2411;47.060;15.064;2024-01-15T06:57:08;6.80;;;5.63;;
4794;SDS011;2411;47.060;15.064;2024-01-15T06:59:35;7.70;;;4.47;;
4794;SDS011;2411;47.060;15.064;2024-01-15T07:02:02;5.63;;;5.00;;
4794;SDS011;2411;47.060;15.064;2024-01-15T07:04:30;6.97;;;5.07;;
4794;SDS011;2411;47.060;15.064;2024-01-15T07:06:57;5.50;;;4.47;;
4794;SDS011;2411;47.060;15.064;2024-01-15T07:09:25;5.30;;;4.80;;
4794;SDS011;2411;47.060;15.064;2024-01-15T07:11:52;8.20;;;4.17;;
4794;SDS011;2411;47.060;15.064;2024-01-15T07:14:19;7.50;;;4.50;;
4794;SDS011;2411;47.060;15.064;2024-01-15T07:16:47;5.60;;;5.07;;
4794;SDS011;2411;47.060;15.064;2024-01-15T07:19:14;5.30;;;4.77;;
4794;SDS011;2411;47.060;15.064;2024-01-15T07:21:42;7.87;;;4.83;;
4794;SDS011;2411;47.060;15.064;2024-01-15T07:24:10;5.40;;;4.10;;
4794;SDS011;2411;47.060;15.064;2024-01-15T07:26:37;4.37;;;4.03;;
4794;SDS011;2411;47.060;15.064;2024-01-15T07:29:04;5.03;;;4.50;;
4794;SDS011;2411;47.060;15.064;2024-01-15T07:31:32;9.07;;;5.50;;
4794;SDS011;2411;47.060;15.064;2024-01-15T07:33:59;4.70;;;4.30;;
4794;SDS011;2411;47.060;15.064;2024-01-15T07:36:27;8.80;;;4.83;;
4794;SDS011;2411;47.060;15.064;2024-01-15T07:38:54;8.60;;;5.50;;
4794;SDS011;2411;47.060;15.064;2024-01-15T07:41:21;5.20;;;4.73;;
4794;SDS011;2411;47.060;15.064;2024-01-15T07:43:50;5.23;;;4.70;;
4794;SDS011;2411;47.060;15.064;2024-01-15T07:46:17;4.47;;;4.10;;
4794;SDS011;2411;47.060;15.064;2024-01-15T07:48:44;9.83;;;5.10;;
4794;SDS011;2411;47.060;15.064;2024-01-15T07:51:12;4.83;;;4.30;;
4794;SDS011;2411;47.060;15.064;2024-01-15T07:53:39;7.03;;;5.50;;
4794;SDS011;2411;47.060;15.064;2024-01-15T07:56:06;9.50;;;7.43;;
4794;SDS011;2411;47.060;15.064;2024-01-15T07:58:33;9.77;;;8.20;;
4794;SDS011;2411;47.060;15.064;2024-01-15T08:01:01;13.63;;;9.40;;
4794;SDS011;2411;47.060;15.064;2024-01-15T08:03:28;15.93;;;9.70;;
4794;SDS011;2411;47.060;15.064;2024-01-15T08:05:56;12.37;;;8.30;;
4794;SDS011;2411;47.060;15.064;2024-01-15T08:08:26;11.07;;;7.43;;
4794;SDS011;2411;47.060;15.064;2024-01-15T08:10:53;18.10;;;7.00;;
4794;SDS011;2411;47.060;15.064;2024-01-15T08:13:20;9.47;;;7.20;;
4794;SDS011;2411;47.060;15.064;2024-01-15T08:15:47;9.90;;;7.50;;
4794;SDS011;2411;47.060;15.064;2024-01-15T08:18:15;13.13;;;8.80;;
4794;SDS011;2411;47.060;15.064;2024-01-15T08:20:42;17.53;;;11.37;;
4794;SDS011;2411;47.060;15.064;2024-01-15T08:23:09;12.87;;;8.77;;
4794;SDS011;2411;47.060;15.064;2024-01-15T08:25:37;11.57;;;7.80;;
4794;SDS011;2411;47.060;15.064;2024-01-15T08:28:04;13.20;;;8.80;;
4794;SDS011;2411;47.060;15.064;2024-01-15T08:30:32;11.50;;;7.70;;
4794;SDS011;2411;47.060;15.064;2024-01-15T08:32:59;7.60;;;6.17;;
4794;SDS011;2411;47.060;15.064;2024-01-15T08:35:36;8.90;;;7.67;;
4794;SDS011;2411;47.060;15.064;2024-01-15T08:38:04;9.70;;;7.10;;
4794;SDS011;2411;47.060;15.064;2024-01-15T08:40:31;10.73;;;7.20;;
4794;SDS011;2411;47.060;15.064;2024-01-15T08:42:58;9.83;;;6.90;;
4794;SDS011;2411;47.060;15.064;2024-01-15T08:45:26;13.13;;;7.50;;
4794;SDS011;2411;47.060;15.064;2024-01-15T08:47:57;9.30;;;7.07;;
4794;SDS011;2411;47.060;15.064;2024-01-15T08:50:24;7.70;;;6.67;;
4794;SDS011;2411;47.060;15.064;2024-01-15T08:52:52;7.57;;;6.33;;
4794;SDS011;2411;47.060;15.064;2024-01-15T08:55:19;10.33;;;6.87;;
4794;SDS011;2411;47.060;15.064;2024-01-15T08:57:49;8.50;;;7.07;;
4794;SDS011;2411;47.060;15.064;2024-01-15T09:00:17;8.97;;;7.90;;
4794;SDS011;2411;47.060;15.064;2024-01-15T09:02:44;9.77;;;7.73;;
4794;SDS011;2411;47.060;15.064;2024-01-15T09:05:12;12.87;;;10.03;;
4794;SDS011;2411;47.060;15.064;2024-01-15T09:07:39;12.40;;;8.80;;
4794;SDS011;2411;47.060;15.064;2024-01-15T09:10:07;10.30;;;8.00;;
4794;SDS011;2411;47.060;15.064;2024-01-15T09:12:34;9.20;;;7.70;;
4794;SDS011;2411;47.060;15.064;2024-01-15T09:15:01;10.70;;;6.70;;
4794;SDS011;2411;47.060;15.064;2024-01-15T09:17:31;7.70;;;7.00;;
4794;SDS011;2411;47.060;15.064;2024-01-15T09:19:59;10.00;;;7.03;;
4794;SDS011;2411;47.060;15.064;2024-01-15T09:22:27;7.30;;;6.03;;
4794;SDS011;2411;47.060;15.064;2024-01-15T09:24:54;7.63;;;6.50;;
4794;SDS011;2411;47.060;15.064;2024-01-15T09:27:21;7.10;;;5.93;;
4794;SDS011;2411;47.060;15.064;2024-01-15T09:29:49;7.30;;;4.60;;
4794;SDS011;2411;47.060;15.064;2024-01-15T09:32:16;5.83;;;5.03;;
4794;SDS011;2411;47.060;15.064;2024-01-15T09:34:44;7.97;;;5.87;;
4794;SDS011;2411;47.060;15.064;2024-01-15T09:37:16;7.43;;;5.10;;
4794;SDS011;2411;47.060;15.064;2024-01-15T09:40:04;5.73;;;4.77;;
4794;SDS011;2411;47.060;15.064;2024-01-15T09:42:33;7.13;;;3.90;;
4794;SDS011;2411;47.060;15.064;2024-01-15T09:45:02;5.63;;;4.30;;
4794;SDS011;2411;47.060;15.064;2024-01-15T09:47:30;4.57;;;4.17;;
4794;SDS011;2411;47.060;15.064;2024-01-15T09:49:58;7.67;;;4.73;;
4794;SDS011;2411;47.060;15.064;2024-01-15T09:52:25;5.80;;;4.67;;
4794;SDS011;2411;47.060;15.064;2024-01-15T09:54:53;5.33;;;3.87;;
4794;SDS011;2411;47.060;15.064;2024-01-15T09:57:21;4.90;;;4.37;;
4794;SDS011;2411;47.060;15.064;2024-01-15T09:59:48;4.97;;;4.10;;
4794;SDS011;2411;47.060;15.064;2024-01-15T10:02:18;8.10;;;3.40;;
4794;SDS011;2411;47.060;15.064;2024-01-15T10:04:46;4.63;;;3.67;;
4794;SDS011;2411;47.060;15.064;2024-01-15T10:07:15;6.40;;;4.40;;
4794;SDS011;2411;47.060;15.064;2024-01-15T10:09:46;3.70;;;3.27;;
4794;SDS011;2411;47.060;15.064;2024-01-15T10:12:14;3.83;;;3.30;;
4794;SDS011;2411;47.060;15.064;2024-01-15T10:14:41;4.63;;;3.87;;
4794;SDS011;2411;47.060;15.064;2024-01-15T10:17:16;6.73;;;4.53;;
4794;SDS011;2411;47.060;15.064;2024-01-15T10:19:47;9.03;;;5.70;;
4794;SDS011;2411;47.060;15.064;2024-01-15T10:22:16;6.00;;;3.70;;
4794;SDS011;2411;47.060;15.064;2024-01-15T10:24:45;5.30;;;4.40;;
4794;SDS011;2411;47.060;15.064;2024-01-15T10:27:15;12.40;;;4.77;;
4794;SDS011;2411;47.060;15.064;2024-01-15T10:29:43;5.13;;;4.63;;
4794;SDS011;2411;47.060;15.064;2024-01-15T10:32:10;4.83;;;4.37;;
4794;SDS011;2411;47.060;15.064;2024-01-15T10:34:39;7.03;;;5.20;;
4794;SDS011;2411;47.060;15.064;2024-01-15T10:37:08;7.97;;;4.23;;
4794;SDS011;2411;47.060;15.064;2024-01-15T10:39:36;11.87;;;5.17;;
4794;SDS011;2411;47.060;15.064;2024-01-15T10:42:05;6.87;;;4.10;;
4794;SDS011;2411;47.060;15.064;2024-01-15T10:44:34;7.20;;;4.10;;
4794;SDS011;2411;47.060;15.064;2024-01-15T10:47:02;10.27;;;5.10;;
4794;SDS011;2411;47.060;15.064;2024-01-15T10:49:30;6.43;;;4.50;;
4794;SDS011;2411;47.060;15.064;2024-01-15T10:52:03;8.07;;;3.40;;
4794;SDS011;2411;47.060;15.064;2024-01-15T10:54:31;6.33;;;4.20;;
4794;SDS011;2411;47.060;15.064;2024-01-15T10:56:59;3.80;;;3.50;;
4794;SDS011;2411;47.060;15.064;2024-01-15T10:59:27;6.03;;;3.90;;
4794;SDS011;2411;47.060;15.064;2024-01-15T11:01:54;4.43;;;4.07;;
4794;SDS011;2411;47.060;15.064;2024-01-15T11:04:23;11.90;;;4.83;;
4794;SDS011;2411;47.060;15.064;2024-01-15T11:06:54;7.53;;;5.80;;
4794;SDS011;2411;47.060;15.064;2024-01-15T11:09:23;8.63;;;4.83;;
4794;SDS011;2411;47.060;15.064;2024-01-15T11:12:08;5.73;;;4.60;;
4794;SDS011;2411;47.060;15.064;2024-01-15T11:14:47;14.83;;;4.53;;
4794;SDS011;2411;47.060;15.064;2024-01-15T11:17:16;6.77;;;5.30;;
4794;SDS011;2411;47.060;15.064;2024-01-15T11:19:46;7.53;;;3.90;;
4794;SDS011;2411;47.060;15.064;2024-01-15T11:24:56;5.53;;;4.77;;
4794;SDS011;2411;47.060;15.064;2024-01-15T11:27:40;6.83;;;5.27;;
4794;SDS011;2411;47.060;15.064;2024-01-15T11:30:19;8.33;;;5.10;;
4794;SDS011;2411;47.060;15.064;2024-01-15T11:32:52;8.17;;;4.87;;
4794;SDS011;2411;47.060;15.064;2024-01-15T11:35:19;13.43;;;5.23;;
4794;SDS011;2411;47.060;15.064;2024-01-15T11:43:00;4.57;;;4.17;;
4794;SDS011;2411;47.060;15.064;2024-01-15T11:45:29;6.00;;;4.30;;
4794;SDS011;2411;47.060;15.064;2024-01-15T11:50:48;6.13;;;4.07;;
4794;SDS011;2411;47.060;15.064;2024-01-15T11:55:50;8.10;;;5.70;;
4794;SDS011;2411;47.060;15.064;2024-01-15T11:58:19;4.43;;;4.03;;
4794;SDS011;2411;47.060;15.064;2024-01-15T12:00:47;10.23;;;4.87;;
4794;SDS011;2411;47.060;15.064;2024-01-15T12:03:23;6.57;;;4.60;;
4794;SDS011;2411;47.060;15.064;2024-01-15T12:05:52;5.43;;;4.30;;
4794;SDS011;2411;47.060;15.064;2024-01-15T12:08:23;8.80;;;4.33;;
4794;SDS011;2411;47.060;15.064;2024-01-15T12:10:50;6.20;;;4.57;;
4794;SDS011;2411;47.060;15.064;2024-01-15T12:13:18;11.73;;;4.50;;
4794;SDS011;2411;47.060;15.064;2024-01-15T12:15:47;6.23;;;4.27;;
4794;SDS011;2411;47.060;15.064;2024-01-15T12:18:16;3.70;;;2.90;;
4794;SDS011;2411;47.060;15.064;2024-01-15T12:20:45;5.87;;;3.83;;
4794;SDS011;2411;47.060;15.064;2024-01-15T12:23:16;3.47;;;3.17;;
4794;SDS011;2411;47.060;15.064;2024-01-15T12:25:44;4.17;;;2.87;;
4794;SDS011;2411;47.060;15.064;2024-01-15T12:28:13;3.17;;;2.87;;
4794;SDS011;2411;47.060;15.064;2024-01-15T12:30:42;4.10;;;3.20;;
4794;SDS011;2411;47.060;15.064;2024-01-15T12:33:17;4.17;;;3.60;;
4794;SDS011;2411;47.060;15.064;2024-01-15T12:35:45;4.57;;;3.50;;
4794;SDS011;2411;47.060;15.064;2024-01-15T12:38:12;5.73;;;3.27;;
4794;SDS011;2411;47.060;15.064;2024-01-15T12:40:40;4.63;;;2.73;;
4794;SDS011;2411;47.060;15.064;2024-01-15T12:43:13;3.97;;;3.60;;
4794;SDS011;2411;47.060;15.064;2024-01-15T12:45:40;3.37;;;3.00;;
4794;SDS011;2411;47.060;15.064;2024-01-15T12:48:07;5.50;;;3.27;;
4794;SDS011;2411;47.060;15.064;2024-01-15T12:50:35;3.83;;;3.23;;
4794;SDS011;2411;47.060;15.064;2024-01-15T12:53:03;3.70;;;3.40;;
4794;SDS011;2411;47.060;15.064;2024-01-15T12:55:30;4.50;;;3.60;;
4794;SDS011;2411;47.060;15.064;2024-01-15T12:57:57;4.07;;;3.43;;
4794;SDS011;2411;47.060;15.064;2024-01-15T13:00:25;3.17;;;2.93;;
4794;SDS011;2411;47.060;15.064;2024-01-15T13:02:53;5.73;;;3.33;;
4794;SDS011;2411;47.060;15.064;2024-01-15T13:05:21;3.90;;;3.50;;
4794;SDS011;2411;47.060;15.064;2024-01-15T13:07:50;3.67;;;3.30;;
4794;SDS011;2411;47.060;15.064;2024-01-15T13:10:17;4.27;;;2.33;;
4794;SDS011;2411;47.060;15.064;2024-01-15T13:12:44;2.70;;;2.50;;
4794;SDS011;2411;47.060;15.064;2024-01-15T13:15:12;4.33;;;3.13;;
4794;SDS011;2411;47.060;15.064;2024-01-15T13:17:41;4.17;;;2.53;;
4794;SDS011;2411;47.060;15.064;2024-01-15T13:20:10;4.00;;;2.60;;
4794;SDS011;2411;47.060;15.064;2024-01-15T13:22:39;3.50;;;3.20;;
4794;SDS011;2411;47.060;15.064;2024-01-15T13:25:11;8.83;;;2.90;;
4794;SDS011;2411;47.060;15.064;2024-01-15T13:27:38;3.00;;;2.80;;
4794;SDS011;2411;47.060;15.064;2024-01-15T13:30:08;4.70;;;2.90;;
4794;SDS011;2411;47.060;15.064;2024-01-15T13:32:35;7.00;;;2.93;;
4794;SDS011;2411;47.060;15.064;2024-01-15T13:35:03;5.03;;;2.67;;
4794;SDS011;2411;47.060;15.064;2024-01-15T13:37:34;8.57;;;3.37;;
4794;SDS011;2411;47.060;15.064;2024-01-15T13:40:01;6.30;;;3.40;;
4794;SDS011;2411;47.060;15.064;2024-01-15T13:42:30;3.47;;;3.20;;
4794;SDS011;2411;47.060;15.064;2024-01-15T13:44:57;5.17;;;3.00;;
4794;SDS011;2411;47.060;15.064;2024-01-15T13:47:25;5.17;;;3.63;;
4794;SDS011;2411;47.060;15.064;2024-01-15T13:49:52;4.03;;;3.63;;
4794;SDS011;2411;47.060;15.064;2024-01-15T13:52:20;4.23;;;3.50;;
4794;SDS011;2411;47.060;15.064;2024-01-15T13:54:47;4.73;;;3.60;;
4794;SDS011;2411;47.060;15.064;2024-01-15T13:57:17;5.53;;;3.30;;
4794;SDS011;2411;47.060;15.064;2024-01-15T13:59:46;7.50;;;3.87;;
4794;SDS011;2411;47.060;15.064;2024-01-15T14:02:16;6.50;;;4.00;;
4794;SDS011;2411;47.060;15.064;2024-01-15T14:04:47;8.53;;;4.00;;
4794;SDS011;2411;47.060;15.064;2024-01-15T14:07:16;4.63;;;3.90;;
4794;SDS011;2411;47.060;15.064;2024-01-15T14:09:43;4.13;;;3.73;;
4794;SDS011;2411;47.060;15.064;2024-01-15T14:12:11;7.03;;;4.10;;
4794;SDS011;2411;47.060;15.064;2024-01-15T14:14:39;5.93;;;3.80;;
4794;SDS011;2411;47.060;15.064;2024-01-15T14:17:07;4.50;;;3.40;;
4794;SDS011;2411;47.060;15.064;2024-01-15T14:19:34;4.80;;;3.90;;
4794;SDS011;2411;47.060;15.064;2024-01-15T14:22:02;6.83;;;4.53;;
4794;SDS011;2411;47.060;15.064;2024-01-15T14:24:30;6.27;;;4.20;;
4794;SDS011;2411;47.060;15.064;2024-01-15T14:26:57;7.03;;;3.77;;
4794;SDS011;2411;47.060;15.064;2024-01-15T14:29:25;8.47;;;5.33;;
4794;SDS011;2411;47.060;15.064;2024-01-15T14:31:53;10.73;;;5.27;;
4794;SDS011;2411;47.060;15.064;2024-01-15T14:34:21;13.23;;;6.73;;
4794;SDS011;2411;47.060;15.064;2024-01-15T14:36:51;16.23;;;7.37;;
4794;SDS011;2411;47.060;15.064;2024-01-15T14:39:22;19.03;;;8.33;;
4794;SDS011;2411;47.060;15.064;2024-01-15T14:41:50;13.13;;;7.47;;
4794;SDS011;2411;47.060;15.064;2024-01-15T14:44:17;11.97;;;7.97;;
4794;SDS011;2411;47.060;15.064;2024-01-15T14:46:44;9.40;;;6.97;;
4794;SDS011;2411;47.060;15.064;2024-01-15T14:49:13;17.00;;;6.60;;
4794;SDS011;2411;47.060;15.064;2024-01-15T14:51:41;16.97;;;8.20;;
4794;SDS011;2411;47.060;15.064;2024-01-15T14:54:09;16.50;;;6.47;;
4794;SDS011;2411;47.060;15.064;2024-01-15T14:56:37;15.53;;;7.20;;
4794;SDS011;2411;47.060;15.064;2024-01-15T14:59:04;17.50;;;8.20;;
4794;SDS011;2411;47.060;15.064;2024-01-15T15:01:31;16.43;;;7.67;;
4794;SDS011;2411;47.060;15.064;2024-01-15T15:03:59;12.93;;;7.23;;
4794;SDS011;2411;47.060;15.064;2024-01-15T15:06:26;9.77;;;7.17;;
4794;SDS011;2411;47.060;15.064;2024-01-15T15:08:55;22.07;;;7.20;;
4794;SDS011;2411;47.060;15.064;2024-01-15T15:11:27;13.77;;;8.73;;
4794;SDS011;2411;47.060;15.064;2024-01-15T15:13:54;12.07;;;8.23;;
4794;SDS011;2411;47.060;15.064;2024-01-15T15:16:21;12.40;;;9.03;;